createdAt,value
2023-02-13T00:03:20.094Z,4141.8
2023-02-13T00:09:00.423Z,4142.3
2023-02-13T00:14:35.672Z,4142.8
2023-02-13T00:20:12.311Z,4143.4
2023-02-13T00:25:50.713Z,4141.6
2023-02-13T00:31:27.875Z,4141.6
2023-02-13T00:37:02.695Z,4141.3
2023-02-13T00:42:38.740Z,4141.3
2023-02-13T00:48:13.761Z,4143.3
2023-02-13T00:54:09.642Z,4140.4
2023-02-13T01:00:05.953Z,4135.9
2023-02-13T01:05:41.192Z,4138.3
2023-02-13T01:13:59.709Z,4140.6
2023-02-13T01:19:46.457Z,4138.3
2023-02-13T01:25:21.268Z,4135.2
2023-02-13T01:31:00.486Z,4133.6
2023-02-13T01:36:38.997Z,4133.9
2023-02-13T01:42:16.375Z,4137.9
2023-02-13T01:49:24.829Z,4135.1
2023-02-13T01:55:07.550Z,4131.9
2023-02-13T02:01:28.734Z,4131.9
2023-02-13T02:07:04.492Z,4130.7
2023-02-13T02:13:03.097Z,4136.4
2023-02-13T02:18:38.067Z,4136.1
2023-02-13T02:24:13.174Z,4133.9
2023-02-13T02:30:09.053Z,4135.6
2023-02-13T02:36:05.335Z,4131.4
2023-02-13T02:41:41.243Z,4131.1
2023-02-13T02:47:20.994Z,4129.5
2023-02-13T02:53:00.307Z,4131.9
2023-02-13T02:58:35.397Z,4132.4
2023-02-13T03:04:23.153Z,4127.2
2023-02-13T03:10:06.484Z,4129
2023-02-13T03:15:50.371Z,4127.7
2023-02-13T03:21:25.294Z,4127.7
2023-02-13T03:26:59.899Z,4127.4
2023-02-13T03:32:43.609Z,4126
2023-02-13T03:38:18.644Z,4126.7
2023-02-13T03:43:59.348Z,4128
2023-02-13T03:49:51.370Z,4130.4
2023-02-13T03:55:29.557Z,4127.9
2023-02-13T04:01:05.698Z,4123.5
2023-02-13T04:06:52.220Z,4120.5
2023-02-13T04:12:29.837Z,4123
2023-02-13T04:18:04.950Z,4123.5
2023-02-13T04:23:48.257Z,4122.8
2023-02-13T04:29:23.459Z,4118.2
2023-02-13T04:35:07.048Z,4120.5
2023-02-13T04:40:42.191Z,4121.5
2023-02-13T04:46:18.362Z,4120
2023-02-13T04:51:55.931Z,4118.3
2023-02-13T04:57:33.988Z,4118.3
2023-02-13T05:03:28.925Z,4122
2023-02-13T05:09:13.587Z,4120.8
2023-02-13T05:15:17.965Z,4119.7
2023-02-13T05:21:25.590Z,4118.3
2023-02-13T05:27:29.042Z,4119.3
2023-02-13T05:33:04.654Z,4120.2
2023-02-13T05:38:42.871Z,4117.8
2023-02-13T05:44:31.815Z,4115.6
2023-02-13T05:50:07.540Z,4117.5
2023-02-13T05:56:27.656Z,4111.5
2023-02-13T06:02:15.427Z,4115.1
2023-02-13T06:08:27.476Z,4117.3
2023-02-13T06:14:02.906Z,4111
2023-02-13T06:19:48.643Z,4113.5
2023-02-13T06:25:23.644Z,4113.8
2023-02-13T06:31:03.586Z,4114
2023-02-13T06:36:54.759Z,4111.8
2023-02-13T06:42:35.733Z,4109.4
2023-02-13T06:48:10.940Z,4113
2023-02-13T06:53:54.936Z,4112.5
2023-02-13T06:59:30.021Z,4106.6
2023-02-13T07:05:04.982Z,4103.2
2023-02-13T07:10:39.887Z,4101.7
2023-02-13T07:16:17.022Z,4101.6
2023-02-13T07:21:52.999Z,4098.4
2023-02-13T07:27:34.002Z,4101.9
2023-02-13T07:33:09.148Z,4116
2023-02-13T07:38:45.909Z,4114
2023-02-13T07:44:21.568Z,4127.4
2023-02-13T07:49:57.734Z,4138.3
2023-02-13T07:55:34.292Z,4167.9
2023-02-13T08:01:09.911Z,4209.6
2023-02-13T08:06:45.402Z,4173.6
2023-02-13T08:12:23.086Z,4144.3
2023-02-13T08:17:59.369Z,4156.2
2023-02-13T08:23:36.404Z,4151
2023-02-13T08:29:11.870Z,4173.9
2023-02-13T08:34:55.698Z,4181.3
2023-02-13T08:40:34.090Z,4190.7
2023-02-13T08:46:39.363Z,4172.3
2023-02-13T08:52:40.458Z,4206.4
2023-02-13T08:58:15.858Z,4177.3
2023-02-13T09:03:58.349Z,4187.7
2023-02-13T09:09:40.946Z,4206.8
2023-02-13T09:15:16.582Z,4193.5
2023-02-13T09:20:52.518Z,4184.3
2023-02-13T09:26:36.804Z,4205.6
2023-02-13T09:32:16.372Z,4208.9
2023-02-13T09:37:52.994Z,4205.4
2023-02-13T09:43:28.298Z,4202.7
2023-02-13T09:49:03.831Z,4193
2023-02-13T09:54:39.438Z,4198.1
2023-02-13T10:00:33.754Z,4202.6
2023-02-13T10:06:09.212Z,4188.8
2023-02-13T10:11:44.577Z,4200.9
2023-02-13T10:17:19.805Z,4210.1
2023-02-13T10:22:56.304Z,4187.2
2023-02-13T10:28:32.623Z,4201.1
2023-02-13T10:34:08.897Z,4204.9
2023-02-13T10:39:47.754Z,4195.2
2023-02-13T10:45:23.857Z,4205.8
2023-02-13T10:50:59.686Z,4189.3
2023-02-13T10:56:35.439Z,4204.2
2023-02-13T11:02:19.474Z,4216.6
2023-02-13T11:08:11.201Z,4202.4
2023-02-13T11:13:50.994Z,4219.5
2023-02-13T11:19:30.745Z,4209.3
2023-02-13T11:25:21.763Z,4201.4
2023-02-13T11:31:51.048Z,4214.6
2023-02-13T11:37:37.601Z,4212.5
2023-02-13T11:43:40.426Z,4217.6
2023-02-13T11:49:15.852Z,4205.3
2023-02-13T11:54:51.816Z,4195.9
2023-02-13T12:00:30.200Z,4199.9
2023-02-13T12:06:05.760Z,4217.5
2023-02-13T12:11:41.471Z,4202.6
2023-02-13T12:17:33.677Z,4202.9
2023-02-13T12:23:09.242Z,4224.5
2023-02-13T12:28:44.794Z,4205.1
2023-02-13T12:34:20.514Z,4218
2023-02-13T12:39:55.849Z,4211.1
2023-02-13T12:45:31.876Z,4204.2
2023-02-13T12:51:07.852Z,4203.7
2023-02-13T12:57:03.667Z,4221
2023-02-13T13:02:40.160Z,4212.1
2023-02-13T13:08:15.627Z,4207.3
2023-02-13T13:13:51.093Z,4203.1
2023-02-13T13:19:26.492Z,4227.7
2023-02-13T13:25:01.943Z,4214.1
2023-02-13T13:30:38.892Z,4227.5
2023-02-13T13:36:14.466Z,4220.7
2023-02-13T13:42:11.762Z,4222.8
2023-02-13T13:48:08.707Z,4209.6
2023-02-13T13:53:41.789Z,4222.3
2023-02-13T13:59:17.097Z,4223.5
2023-02-13T14:05:13.567Z,4212.3
2023-02-13T14:10:49.166Z,4216.6
2023-02-13T14:16:31.770Z,4214.8
2023-02-13T14:22:08.022Z,4221.8
2023-02-13T14:27:43.503Z,4207.1
2023-02-13T14:33:20.000Z,4223.3
2023-02-13T14:39:08.397Z,4218
2023-02-13T14:44:44.124Z,4218.7
2023-02-13T14:50:19.431Z,4217.5
2023-02-13T14:55:54.743Z,4224.2
2023-02-13T15:01:31.312Z,4219.3
2023-02-13T15:07:06.690Z,4229.2
2023-02-13T15:12:43.350Z,4221.8
2023-02-13T15:18:19.103Z,4221.8
2023-02-13T15:23:54.677Z,4224.5
2023-02-13T15:29:51.042Z,4215.5
2023-02-13T15:35:26.671Z,4219.7
2023-02-13T15:41:02.112Z,4201.7
2023-02-13T15:46:58.743Z,4200.9
2023-02-13T15:52:31.731Z,4198.1
2023-02-13T15:58:07.959Z,4202.7
2023-02-13T16:03:42.962Z,4199.2
2023-02-13T16:09:22.062Z,4197.6
2023-02-13T16:14:57.949Z,4197.9
2023-02-13T16:20:33.960Z,4197.6
2023-02-13T16:26:09.665Z,4194
2023-02-13T16:31:48.677Z,4193.4
2023-02-13T16:37:23.662Z,4191.4
2023-02-13T16:42:58.942Z,4188
2023-02-13T16:48:55.947Z,4185.2
2023-02-13T16:54:31.940Z,4185.3
2023-02-13T17:00:07.255Z,4185.8
2023-02-13T17:05:50.070Z,4185.5
2023-02-13T17:11:26.712Z,4184.1
2023-02-13T17:17:04.372Z,4181.6
2023-02-13T17:22:39.657Z,4184.3
2023-02-13T17:28:15.835Z,4180.1
2023-02-13T17:33:50.869Z,4181.3
2023-02-13T17:39:25.996Z,4179.5
2023-02-13T17:45:02.450Z,4178.5
2023-02-13T17:50:38.849Z,4178.3
2023-02-13T17:56:13.922Z,4175.9
2023-02-13T18:01:49.830Z,4180.6
2023-02-13T18:07:28.837Z,4176.9
2023-02-13T18:13:04.078Z,4176.6
2023-02-13T18:18:48.303Z,4177.3
2023-02-13T18:24:25.224Z,4179
2023-02-13T18:30:01.268Z,4174.9
2023-02-13T18:35:36.542Z,4176.9
2023-02-13T18:41:11.531Z,4173.9
2023-02-13T18:47:08.317Z,4172.8
2023-02-13T18:52:41.412Z,4174.3
2023-02-13T18:58:16.621Z,4175.6
2023-02-13T19:03:53.861Z,4175.8
2023-02-13T19:09:32.831Z,4173.8
2023-02-13T19:15:07.946Z,4173.8
2023-02-13T19:20:49.111Z,4172.1
2023-02-13T19:26:24.429Z,4174.4
2023-02-13T19:32:07.187Z,4172.8
2023-02-13T19:37:45.755Z,4170.1
2023-02-13T19:43:22.391Z,4170.7
2023-02-13T19:49:19.686Z,4169.4
2023-02-13T19:55:00.630Z,4170.1
2023-02-13T20:00:36.096Z,4170.7
2023-02-13T20:06:16.010Z,4168.7
2023-02-13T20:11:51.841Z,4169.4
2023-02-13T20:17:26.760Z,4167.9
2023-02-13T20:23:02.224Z,4166.1
2023-02-13T20:28:37.171Z,4166.4
2023-02-13T20:34:12.254Z,4168.7
2023-02-13T20:39:47.659Z,4165.9
2023-02-13T20:45:23.256Z,4168.7
2023-02-13T20:51:03.923Z,4167.7
2023-02-13T20:56:40.547Z,4165.4
2023-02-13T21:02:16.416Z,4164
2023-02-13T21:07:56.655Z,4164.2
2023-02-13T21:13:32.017Z,4162.4
2023-02-13T21:19:16.334Z,4159
2023-02-13T21:24:52.384Z,4161.7
2023-02-13T21:30:31.763Z,4160.4
2023-02-13T21:36:19.789Z,4160.9
2023-02-13T21:42:00.192Z,4158.5
2023-02-13T21:47:35.949Z,4159.2
2023-02-13T21:53:11.088Z,4161.9
2023-02-13T21:58:48.493Z,4156.3
2023-02-13T22:04:44.516Z,4156.8
2023-02-13T22:10:21.666Z,4158
2023-02-13T22:15:57.161Z,4158.9
2023-02-13T22:21:32.774Z,4155.5
2023-02-13T22:27:08.133Z,4157.2
2023-02-13T22:32:48.126Z,4152.8
2023-02-13T22:38:26.406Z,4154.8
2023-02-13T22:44:01.430Z,4154.8
2023-02-13T22:49:37.260Z,4155
2023-02-13T22:55:12.109Z,4154
2023-02-13T23:00:53.409Z,4154.8
2023-02-13T23:06:28.839Z,4152.5
2023-02-13T23:12:09.048Z,4152
2023-02-13T23:17:46.103Z,4153
2023-02-13T23:23:21.342Z,4153.7
2023-02-13T23:28:56.596Z,4152
2023-02-13T23:34:45.251Z,4153.2
2023-02-13T23:40:32.280Z,4150
2023-02-13T23:46:10.229Z,4152.8
2023-02-13T23:51:54.512Z,4150.3
2023-02-13T23:57:33.432Z,4151
